Flight Track Log - Related Links

Times and Time Zones

All times are in EDT time to prevent confusion due to time zone crossing. See the UCA4846 flight status page for this flight to view local times or setup timezone preferences in your user account.

Time Position Orientation Groundspeed Altitude Reporting Facility
EDT Latitude Longitude Course Direction KTS MPH feet Rate Location/Type
Thu 12:23:00 PM 40.9734 -74.7027 305° West  Level Estimated
Thu 12:24:00 PM 41.0133 -74.7793 305° West  Level Estimated
Thu 12:25:00 PM 41.0531 -74.8561 305° West  Level Estimated
Thu 12:26:00 PM 41.0930 -74.9329 305° West  Level Estimated
Thu 12:27:00 PM 41.1327 -75.0099 304° West  Level Estimated
Thu 12:28:00 PM 41.1724 -75.0869 304° West  Level Estimated
Thu 12:29:00 PM 41.2121 -75.1640 304° West  Level Estimated
Thu 12:30:00 PM 41.2517 -75.2412 304° West  Level Estimated
Thu 12:31:00 PM 41.2913 -75.3186 304° West  Level Estimated
Thu 12:32:00 PM 41.3308 -75.3960 304° West  Level Estimated
Thu 12:33:00 PM 41.3702 -75.4734 304° West  Level Estimated
Thu 12:34:00 PM 41.4096 -75.5510 304° West  Level Estimated
Thu 12:35:00 PM 41.4490 -75.6287 304° West  Level Estimated
Thu 12:36:00 PM 41.4883 -75.7065 304° West  Level Estimated
Thu 12:37:00 PM 41.5275 -75.7844 304° West  Level Estimated
Thu 12:38:00 PM 41.5667 -75.8624 304° West  Level Estimated
Thu 12:39:00 PM 41.6059 -75.9404 304° West  Level Estimated
Thu 12:40:00 PM 41.6450 -76.0186 304° West  Level Estimated
Thu 12:41:00 PM 41.6840 -76.0968 304° West  Level Estimated
Thu 12:42:00 PM 41.7230 -76.1752 304° West  Level Estimated
Thu 12:43:00 PM 41.7619 -76.2536 304° West  Level Estimated
Thu 12:44:00 PM 41.8008 -76.3322 304° West  Level Estimated
Thu 12:45:00 PM 41.8396 -76.4108 304° West  Level Estimated
Thu 12:46:00 PM 41.8784 -76.4895 303° West  Level Estimated
Thu 12:47:00 PM 41.9171 -76.5683 303° West  Level Estimated
Thu 12:48:00 PM 41.9558 -76.6472 303° West  Level Estimated
Thu 12:49:00 PM 41.9944 -76.7263 303° West  Level Estimated
Thu 12:50:00 PM 42.0329 -76.8054 303° West  Level Estimated
Thu 12:51:00 PM 42.0714 -76.8846 303° West  Level Estimated
Thu 12:52:00 PM 42.1099 -76.9639 303° West  Level Estimated
Thu 12:53:00 PM 42.1483 -77.0433 303° West  Level Estimated
Thu 12:54:00 PM 42.1866 -77.1228 303° West  Level Estimated
Thu 12:55:00 PM 42.2249 -77.2024 303° West  Level Estimated
Thu 12:56:00 PM 42.2631 -77.2821 303° West  Level Estimated
Thu 12:57:00 PM 42.3013 -77.3619 303° West  Level Estimated
Thu 12:58:00 PM 42.3394 -77.4417 303° West  Level Estimated
Thu 12:59:00 PM 42.3774 -77.5217 303° West  Level Estimated
Thu 01:00:00 PM 42.4154 -77.6018 303° West  Level Estimated
Thu 01:01:00 PM 42.4534 -77.6820 303° West  Level Estimated
Thu 01:02:00 PM 42.4913 -77.7622 303° West  Level Estimated
Thu 01:03:00 PM 42.5291 -77.8426 303° West  Level Estimated
Thu 01:04:00 PM 42.5669 -77.9231 303° West  Level Estimated
Thu 01:05:00 PM 42.6046 -78.0036 302° West  Level Estimated
Thu 01:06:00 PM 42.6423 -78.0843 302° West  Level Estimated
Thu 01:07:00 PM 42.6799 -78.1650 302° West  Level Estimated
Thu 01:08:00 PM 42.7174 -78.2459 302° West  Level Estimated
Thu 01:09:00 PM 42.7549 -78.3269 302° West  Level Estimated
Thu 01:10:00 PM 42.7924 -78.4079 302° West  Level Estimated
Thu 01:11:00 PM 42.8298 -78.4891 302° West  Level Estimated
Thu 01:12:00 PM 42.8671 -78.5703 302° West  Level Estimated
Thu 01:13:00 PM 42.9044 -78.6516 302° West  Level Estimated
Thu 01:14:00 PM 42.9404 -78.7306 302° West  Level Estimated
Thu 01:15:00 PM 42.9404 -78.7306 216° Southwest  Level Estimated
Thu 01:16:00 PM 42.9404 -78.7306 216° Southwest  Level Estimated
Thu 01:17:00 PM 42.9404 -78.7306 216° Southwest  Level Estimated
Thu 01:18:00 PM 42.9404 -78.7306 216° Southwest  Level Estimated
Thu 01:19:00 PM 42.9404 -78.7306 216° Southwest  Level Estimated
Thu 01:20:00 PM 42.9404 -78.7306 216° Southwest  Level Estimated
Thu 01:21:00 PM 42.9404 -78.7306 216° Southwest  Level Estimated
Thu 01:22:00 PM 42.9404 -78.7306 216° Southwest  Level Estimated
Thu 01:23:00 PM 42.9404 -78.7306 216° Southwest  Level Estimated
Thu 01:24:00 PM 42.9404 -78.7306 216° Southwest  Level Estimated
Thu 01:25:00 PM 42.9404 -78.7306 216° Southwest  Level Estimated
Thu 01:26:00 PM 42.9404 -78.7306 216° Southwest  Level Estimated
Thu 01:27:00 PM 42.9404 -78.7306 216° Southwest  Level Estimated
Thu 01:28:00 PM 42.9404 -78.7306 216° Southwest  Level Estimated
Thu 01:29:00 PM 42.9404 -78.7306 216° Southwest  Level Estimated
Thu 01:30:00 PM 42.9404 -78.7306 216° Southwest  Level Estimated

Login

Don't have an account? Register now (free) for customized features, flight alerts, and more!